createdAt,value
2023-03-04T00:00:05.454Z,-0.60
2023-03-04T00:10:12.552Z,-0.60
2023-03-04T00:20:15.059Z,-0.51
2023-03-04T00:30:17.822Z,-0.61
2023-03-04T00:40:21.600Z,-0.56
2023-03-04T00:50:24.095Z,-0.47
2023-03-04T01:00:26.944Z,-1.03
2023-03-04T01:10:30.209Z,-0.88
2023-03-04T01:20:32.769Z,-0.82
2023-03-04T01:30:35.309Z,-0.77
2023-03-04T01:40:38.294Z,-0.88
2023-03-04T01:50:40.944Z,-1.04
2023-03-04T02:00:43.789Z,-1.64
2023-03-04T02:10:47.856Z,-1.51
2023-03-04T02:21:12.843Z,-1.41
2023-03-04T02:31:37.762Z,-1.39
2023-03-04T02:41:40.579Z,-1.66
2023-03-04T02:51:43.561Z,-1.39
2023-03-04T03:01:46.529Z,-1.34
2023-03-04T03:11:49.389Z,-1.53
2023-03-04T03:21:52.125Z,-1.50
2023-03-04T03:31:54.769Z,-1.73
2023-03-04T03:41:57.333Z,-2.01
2023-03-04T03:51:59.985Z,-2.02
2023-03-04T04:02:02.475Z,-1.84
2023-03-04T04:12:06.343Z,-1.98
2023-03-04T04:22:15.019Z,-2.04
2023-03-04T04:32:17.653Z,-2.17
2023-03-04T04:42:20.215Z,-2.43
2023-03-04T04:52:22.678Z,-2.30
2023-03-04T05:02:25.090Z,-2.25
2023-03-04T05:12:27.758Z,-2.31
2023-03-04T05:22:30.272Z,-2.05
2023-03-04T05:32:32.888Z,-2.00
2023-03-04T05:42:35.470Z,-1.91
2023-03-04T05:52:38.063Z,-1.95
2023-03-04T06:02:41.528Z,-1.98
2023-03-04T06:12:44.243Z,-1.88
2023-03-04T06:22:46.704Z,-1.58
2023-03-04T06:32:49.386Z,-1.03
2023-03-04T06:42:51.822Z,-0.73
2023-03-04T06:52:56.889Z,-0.37
2023-03-04T07:02:59.832Z,0.01
2023-03-04T07:13:02.645Z,0.55
2023-03-04T07:23:05.111Z,0.98
2023-03-04T07:33:07.920Z,1.62
2023-03-04T07:43:12.582Z,2.23
2023-03-04T07:53:15.154Z,3.16
2023-03-04T08:03:17.874Z,3.78
2023-03-04T08:13:20.361Z,4.68
2023-03-04T08:23:23.085Z,4.88
2023-03-04T08:33:25.686Z,5.68
2023-03-04T08:43:28.216Z,6.36
2023-03-04T08:53:30.658Z,7.12
2023-03-04T09:03:33.372Z,7.64
2023-03-04T09:13:36.349Z,8.72
2023-03-04T09:23:39.130Z,10.11
2023-03-04T09:33:43.184Z,10.06
2023-03-04T09:43:47.319Z,10.70
2023-03-04T09:53:58.529Z,11.30
2023-03-04T10:04:10.652Z,11.72
2023-03-04T10:14:22.457Z,12.76
2023-03-04T10:24:28.838Z,12.14
2023-03-04T10:34:31.332Z,12.96
2023-03-04T10:44:35.233Z,13.80
2023-03-04T10:54:37.631Z,14.65
2023-03-04T11:04:40.557Z,15.26
2023-03-04T11:14:50.885Z,15.34
2023-03-04T11:25:01.304Z,15.88
2023-03-04T11:35:23.928Z,16.64
2023-03-04T11:45:42.950Z,18.11
2023-03-04T11:56:10.594Z,17.24
2023-03-04T12:06:25.407Z,18.05
2023-03-04T12:16:46.525Z,18.20
2023-03-04T12:26:55.214Z,19.51
2023-03-04T12:37:35.638Z,18.87
2023-03-04T12:47:55.496Z,18.51
2023-03-04T12:57:58.426Z,19.90
2023-03-04T13:08:13.378Z,18.06
2023-03-04T13:18:32.493Z,19.00
2023-03-04T13:28:37.090Z,16.84
2023-03-04T13:38:39.733Z,18.91
2023-03-04T13:48:43.258Z,18.86
2023-03-04T13:58:46.459Z,17.21
2023-03-04T14:08:50.884Z,15.68
2023-03-04T14:19:02.735Z,14.11
2023-03-04T14:29:22.954Z,13.78
2023-03-04T14:39:30.022Z,13.62
2023-03-04T14:49:35.388Z,13.16
2023-03-04T14:59:38.176Z,13.12
2023-03-04T15:09:41.769Z,12.70
2023-03-04T15:19:44.410Z,12.58
2023-03-04T15:29:47.351Z,12.29
2023-03-04T15:39:51.355Z,12.07
2023-03-04T15:49:53.823Z,11.79
2023-03-04T15:59:56.343Z,11.49
2023-03-04T16:10:05.664Z,11.03
2023-03-04T16:20:09.817Z,10.49
2023-03-04T16:30:24.292Z,9.89
2023-03-04T16:40:30.229Z,9.43
2023-03-04T16:50:32.799Z,9.04
2023-03-04T17:00:35.652Z,8.61
2023-03-04T17:10:38.260Z,8.15
2023-03-04T17:20:40.895Z,7.82
2023-03-04T17:30:43.449Z,7.97
2023-03-04T17:40:46.281Z,7.73
2023-03-04T17:50:53.339Z,7.48
2023-03-04T18:01:02.978Z,7.25
2023-03-04T18:11:06.058Z,6.94
2023-03-04T18:21:09.167Z,6.73
2023-03-04T18:31:11.920Z,6.35
2023-03-04T18:41:15.631Z,6.04
2023-03-04T18:51:18.469Z,5.55
2023-03-04T19:01:24.655Z,5.02
2023-03-04T19:11:29.938Z,4.53
2023-03-04T19:21:38.178Z,4.27
2023-03-04T19:31:41.561Z,3.95
2023-03-04T19:41:44.850Z,3.93
2023-03-04T19:51:47.726Z,3.76
2023-03-04T20:01:50.855Z,3.30
2023-03-04T20:11:58.719Z,3.20
2023-03-04T20:22:02.916Z,3.03
2023-03-04T20:32:05.781Z,2.85
2023-03-04T20:42:08.622Z,2.75
2023-03-04T20:52:11.537Z,2.59
2023-03-04T21:02:17.257Z,2.50
2023-03-04T21:12:20.265Z,2.22
2023-03-04T21:22:22.781Z,1.89
2023-03-04T21:32:27.104Z,1.78
2023-03-04T21:42:29.777Z,1.76
2023-03-04T21:52:32.201Z,1.86
2023-03-04T22:02:39.214Z,1.78
2023-03-04T22:12:41.696Z,1.65
2023-03-04T22:22:44.107Z,1.69
2023-03-04T22:32:48.390Z,1.70
2023-03-04T22:42:51.002Z,1.54
2023-03-04T22:52:53.844Z,1.54
2023-03-04T23:02:56.982Z,1.36
2023-03-04T23:12:59.959Z,1.37
2023-03-04T23:23:02.979Z,1.37
2023-03-04T23:33:05.578Z,1.58
2023-03-04T23:43:08.260Z,1.64
2023-03-04T23:53:10.729Z,1.46
